createdAt,value
2018-11-13T00:00:24.558Z,58.80
2018-11-13T00:02:53.938Z,58.60
2018-11-13T00:05:23.446Z,59.40
2018-11-13T00:07:52.818Z,59.50
2018-11-13T00:10:21.803Z,59.40
2018-11-13T00:12:51.249Z,58.00
2018-11-13T00:15:20.448Z,58.20
2018-11-13T00:17:49.327Z,57.90
2018-11-13T00:20:19.041Z,57.40
2018-11-13T00:22:48.252Z,56.60
2018-11-13T00:25:18.671Z,57.70
2018-11-13T00:27:47.535Z,59.20
2018-11-13T00:30:21.110Z,58.80
2018-11-13T00:32:50.806Z,58.50
2018-11-13T00:35:20.510Z,58.50
2018-11-13T00:37:49.863Z,58.80
2018-11-13T00:40:19.252Z,58.20
2018-11-13T00:42:48.581Z,58.30
2018-11-13T00:45:17.515Z,58.60
2018-11-13T00:47:46.816Z,58.30
2018-11-13T00:50:16.985Z,58.00
2018-11-13T00:52:46.488Z,58.60
2018-11-13T00:55:15.988Z,58.60
2018-11-13T00:57:45.079Z,59.10
2018-11-13T01:00:16.773Z,59.70
2018-11-13T01:02:45.982Z,60.10
2018-11-13T01:05:16.603Z,59.80
2018-11-13T01:07:46.827Z,58.60
2018-11-13T01:10:16.519Z,58.50
2018-11-13T01:12:46.688Z,58.00
2018-11-13T01:15:16.650Z,58.90
2018-11-13T01:17:46.800Z,59.40
2018-11-13T01:20:17.464Z,60.80
2018-11-13T01:22:47.277Z,61.30
2018-11-13T01:25:17.648Z,60.80
2018-11-13T01:27:47.575Z,60.10
2018-11-13T01:30:17.635Z,60.10
2018-11-13T01:32:47.175Z,60.00
2018-11-13T01:35:17.494Z,58.80
2018-11-13T01:37:47.217Z,58.90
2018-11-13T01:40:19.017Z,59.10
2018-11-13T01:42:48.245Z,58.90
2018-11-13T01:45:19.108Z,58.80
2018-11-13T01:47:48.874Z,58.90
2018-11-13T01:50:18.942Z,59.70
2018-11-13T01:52:48.551Z,60.30
2018-11-13T01:55:18.393Z,60.00
2018-11-13T01:57:47.908Z,60.00
2018-11-13T02:00:23.441Z,60.80
2018-11-13T02:02:55.258Z,60.30
2018-11-13T02:05:26.006Z,59.40
2018-11-13T02:07:56.124Z,58.80
2018-11-13T02:10:25.661Z,58.30
2018-11-13T02:12:54.909Z,57.60
2018-11-13T02:15:24.661Z,57.90
2018-11-13T02:17:54.225Z,57.60
2018-11-13T02:20:23.762Z,57.60
2018-11-13T02:22:53.514Z,58.60
2018-11-13T02:25:23.339Z,58.60
2018-11-13T02:27:53.166Z,58.30
2018-11-13T02:30:23.789Z,58.90
2018-11-13T02:32:53.990Z,59.70
2018-11-13T02:35:23.284Z,59.50
2018-11-13T02:37:53.048Z,59.80
2018-11-13T02:40:22.557Z,60.60
2018-11-13T02:42:52.241Z,62.10
2018-11-13T02:45:21.953Z,62.20
2018-11-13T02:47:51.136Z,62.20
2018-11-13T02:50:21.755Z,62.40
2018-11-13T02:52:51.879Z,61.50
2018-11-13T02:55:21.383Z,61.00
2018-11-13T02:57:51.452Z,61.00
2018-11-13T03:00:21.912Z,62.40
2018-11-13T03:02:51.639Z,63.90
2018-11-13T03:05:21.959Z,65.30
2018-11-13T03:07:51.672Z,65.80
2018-11-13T03:10:21.731Z,64.40
2018-11-13T03:12:51.609Z,63.30
2018-11-13T03:15:21.980Z,61.70
2018-11-13T03:17:52.581Z,61.30
2018-11-13T03:20:22.773Z,61.30
2018-11-13T03:22:52.464Z,61.30
2018-11-13T03:25:22.600Z,61.00
2018-11-13T03:27:53.006Z,61.30
2018-11-13T03:30:24.780Z,63.00
2018-11-13T03:32:54.617Z,63.70
2018-11-13T03:35:23.810Z,64.00
2018-11-13T03:37:56.276Z,66.00
2018-11-13T03:40:25.312Z,63.50
2018-11-13T03:42:54.820Z,62.60
2018-11-13T03:45:24.355Z,62.20
2018-11-13T03:47:54.072Z,61.70
2018-11-13T03:50:24.156Z,61.50
2018-11-13T03:52:53.977Z,61.20
2018-11-13T03:55:23.778Z,62.20
2018-11-13T03:57:54.026Z,62.20
2018-11-13T04:00:24.397Z,65.30
2018-11-13T04:02:54.142Z,66.20
2018-11-13T04:05:23.852Z,65.50
2018-11-13T04:07:54.602Z,64.80
2018-11-13T04:10:24.840Z,64.80
2018-11-13T04:12:54.533Z,64.40
2018-11-13T04:15:25.432Z,64.20
2018-11-13T04:17:55.327Z,64.00
2018-11-13T04:20:25.100Z,63.30
2018-11-13T04:22:54.943Z,65.80
2018-11-13T04:25:24.814Z,66.40
2018-11-13T04:27:54.555Z,67.10
2018-11-13T04:30:24.462Z,66.00
2018-11-13T04:32:54.451Z,65.30
2018-11-13T04:35:24.156Z,65.70
2018-11-13T04:37:53.787Z,65.10
2018-11-13T04:40:23.566Z,63.10
2018-11-13T04:42:54.181Z,63.00
2018-11-13T04:45:25.243Z,63.30
2018-11-13T04:47:55.163Z,63.30
2018-11-13T04:50:24.849Z,63.90
2018-11-13T04:52:54.602Z,63.30
2018-11-13T04:55:24.075Z,63.30
2018-11-13T04:57:53.310Z,63.50
2018-11-13T05:00:23.779Z,66.00
2018-11-13T05:02:53.491Z,66.40
2018-11-13T05:05:23.359Z,66.60
2018-11-13T05:07:54.311Z,67.10
2018-11-13T05:10:24.967Z,66.60
2018-11-13T05:12:54.127Z,66.40
2018-11-13T05:15:23.819Z,68.00
2018-11-13T05:17:53.621Z,69.10
2018-11-13T05:20:23.463Z,69.80
2018-11-13T05:22:53.149Z,70.30
2018-11-13T05:25:22.542Z,71.20
2018-11-13T05:27:51.991Z,72.10
2018-11-13T05:30:22.767Z,71.40
2018-11-13T05:32:52.067Z,71.00
2018-11-13T05:35:22.354Z,70.90
2018-11-13T05:37:52.140Z,70.70
2018-11-13T05:40:23.027Z,70.30
2018-11-13T05:42:53.015Z,69.80
2018-11-13T05:45:25.637Z,69.80
2018-11-13T05:47:54.853Z,70.30
2018-11-13T05:50:25.516Z,70.50
2018-11-13T05:52:55.245Z,72.10
2018-11-13T05:55:25.115Z,74.30
2018-11-13T05:57:55.397Z,75.90
2018-11-13T06:00:32.400Z,76.80
2018-11-13T06:03:06.311Z,76.80
2018-11-13T06:05:37.145Z,75.70
2018-11-13T06:08:06.936Z,75.90
2018-11-13T06:10:38.079Z,75.50
2018-11-13T06:13:08.090Z,75.50
2018-11-13T06:15:38.072Z,74.60
2018-11-13T06:18:09.170Z,74.10
2018-11-13T06:20:39.151Z,74.10
2018-11-13T06:23:08.402Z,73.70
2018-11-13T06:25:38.616Z,73.20
2018-11-13T06:28:08.350Z,74.50
2018-11-13T06:30:37.952Z,73.70
2018-11-13T06:33:07.598Z,76.80
2018-11-13T06:35:37.154Z,79.30
2018-11-13T06:38:06.873Z,76.80
2018-11-13T06:40:36.636Z,76.60
2018-11-13T06:43:06.038Z,73.70
2018-11-13T06:45:35.825Z,71.90
2018-11-13T06:48:05.875Z,72.30
2018-11-13T06:50:35.563Z,72.70
2018-11-13T06:53:05.217Z,70.70
2018-11-13T06:55:36.634Z,68.30
2018-11-13T06:58:06.522Z,73.00
2018-11-13T07:00:36.257Z,74.60
2018-11-13T07:03:05.977Z,76.80
2018-11-13T07:05:35.342Z,78.40
2018-11-13T07:08:05.285Z,80.40
2018-11-13T07:10:36.012Z,80.20
2018-11-13T07:13:06.266Z,78.60
2018-11-13T07:15:35.947Z,77.70
2018-11-13T07:18:06.200Z,78.90
2018-11-13T07:20:36.182Z,77.90
2018-11-13T07:23:05.853Z,78.40
2018-11-13T07:25:36.003Z,77.90
2018-11-13T07:28:05.752Z,77.90
2018-11-13T07:30:34.958Z,79.10
2018-11-13T07:33:04.391Z,78.60
2018-11-13T07:35:34.192Z,79.70
2018-11-13T07:38:03.832Z,79.10
2018-11-13T07:40:34.435Z,77.10
2018-11-13T07:43:04.304Z,73.90
2018-11-13T07:45:33.574Z,76.10
2018-11-13T07:48:03.799Z,75.20
2018-11-13T07:50:33.584Z,76.30
2018-11-13T07:53:05.478Z,77.70
2018-11-13T07:55:35.206Z,78.40
2018-11-13T07:58:04.820Z,77.10
2018-11-13T08:00:34.566Z,77.50
2018-11-13T08:03:16.077Z,79.80
2018-11-13T08:05:45.728Z,80.00
2018-11-13T08:08:16.006Z,81.80
2018-11-13T08:10:45.751Z,80.90
2018-11-13T08:13:15.762Z,78.00
2018-11-13T08:15:45.356Z,76.40
2018-11-13T08:18:15.124Z,75.00
2018-11-13T08:20:44.713Z,74.10
2018-11-13T08:23:14.231Z,75.20
2018-11-13T08:25:43.634Z,77.00
2018-11-13T08:28:13.644Z,76.80
2018-11-13T08:30:43.531Z,73.60
2018-11-13T08:33:13.622Z,75.90
2018-11-13T08:35:43.723Z,73.00
2018-11-13T08:38:12.815Z,74.50
2018-11-13T08:40:42.643Z,74.30
2018-11-13T08:43:13.295Z,72.80
2018-11-13T08:45:43.160Z,72.30
2018-11-13T08:48:13.026Z,71.90
2018-11-13T08:50:43.036Z,74.80
2018-11-13T08:53:13.505Z,74.10
2018-11-13T08:55:43.069Z,70.10
2018-11-13T08:58:13.312Z,70.70
2018-11-13T09:00:42.452Z,69.60
2018-11-13T09:03:12.479Z,73.90
2018-11-13T09:09:01.451Z,71.80
2018-11-13T09:11:31.166Z,74.50
2018-11-13T09:14:00.846Z,75.00
2018-11-13T09:16:31.314Z,74.60
2018-11-13T09:19:02.921Z,76.30
2018-11-13T09:21:33.552Z,77.00
2018-11-13T09:24:03.557Z,72.30
2018-11-13T09:26:34.399Z,73.90
2018-11-13T09:29:04.259Z,71.00
2018-11-13T09:31:34.075Z,72.10
2018-11-13T09:34:03.963Z,72.50
2018-11-13T09:36:37.022Z,73.70
2018-11-13T09:39:16.729Z,73.20
2018-11-13T09:41:47.694Z,72.80
2018-11-13T09:44:17.161Z,72.10
2018-11-13T09:46:46.176Z,73.40
2018-11-13T09:49:15.123Z,72.70
2018-11-13T09:51:44.686Z,73.40
2018-11-13T09:54:14.101Z,71.60
2018-11-13T09:56:43.825Z,70.90
2018-11-13T09:59:12.719Z,73.40
2018-11-13T10:01:41.937Z,74.10
2018-11-13T10:04:11.054Z,74.50
2018-11-13T10:06:39.559Z,75.40
2018-11-13T10:09:11.949Z,73.00
2018-11-13T10:11:42.024Z,72.80
2018-11-13T10:14:11.849Z,76.60
2018-11-13T10:16:41.695Z,77.50
2018-11-13T10:19:11.302Z,78.40
2018-11-13T10:21:40.257Z,76.80
2018-11-13T10:24:09.900Z,76.30
2018-11-13T10:26:38.831Z,76.30
2018-11-13T10:29:07.783Z,74.60
2018-11-13T10:31:36.903Z,74.80
2018-11-13T10:34:06.087Z,77.00
2018-11-13T10:36:35.479Z,77.10
2018-11-13T10:39:07.018Z,76.30
2018-11-13T10:41:37.256Z,74.80
2018-11-13T10:44:06.260Z,74.30
2018-11-13T10:46:35.427Z,74.80
2018-11-13T10:49:05.032Z,75.50
2018-11-13T10:51:34.199Z,73.40
2018-11-13T10:54:03.362Z,76.10
2018-11-13T10:56:32.329Z,77.90
2018-11-13T10:59:01.182Z,77.50
2018-11-13T11:01:35.966Z,76.80
2018-11-13T11:04:10.385Z,76.60
2018-11-13T11:06:39.573Z,75.50
2018-11-13T11:09:09.438Z,74.80
2018-11-13T11:11:39.524Z,74.50
2018-11-13T11:14:08.603Z,74.60
2018-11-13T11:16:37.590Z,73.90
2018-11-13T11:19:06.916Z,73.90
2018-11-13T11:21:36.000Z,73.70
2018-11-13T11:24:07.820Z,72.80
2018-11-13T11:26:36.680Z,72.70
2018-11-13T11:29:06.136Z,72.70
2018-11-13T11:31:35.196Z,71.90
2018-11-13T11:34:04.851Z,71.00
2018-11-13T11:36:34.848Z,70.30
2018-11-13T11:39:04.941Z,70.50
2018-11-13T11:41:34.333Z,70.30
2018-11-13T11:44:03.804Z,70.70
2018-11-13T11:46:33.398Z,70.10
2018-11-13T11:49:02.999Z,70.00
2018-11-13T11:51:33.057Z,69.80
2018-11-13T11:54:02.086Z,69.80
2018-11-13T11:56:31.462Z,71.80
2018-11-13T11:59:00.709Z,73.20
2018-11-13T12:01:29.966Z,72.70
2018-11-13T12:03:58.982Z,72.10
2018-11-13T12:06:28.303Z,72.10
2018-11-13T12:08:57.491Z,73.00
2018-11-13T12:11:26.664Z,74.60
2018-11-13T12:13:55.691Z,75.90
2018-11-13T12:16:24.707Z,74.60
2018-11-13T12:18:53.664Z,75.40
2018-11-13T12:21:22.670Z,74.80
2018-11-13T12:23:52.387Z,75.00
2018-11-13T12:26:21.759Z,72.50
2018-11-13T12:28:50.997Z,73.70
2018-11-13T12:31:20.170Z,71.20
2018-11-13T12:33:50.319Z,69.80
2018-11-13T12:36:19.291Z,72.10
2018-11-13T12:38:48.498Z,67.40
2018-11-13T12:41:17.403Z,67.80
2018-11-13T12:43:46.539Z,66.90
2018-11-13T12:46:15.774Z,65.80
2018-11-13T12:48:45.521Z,66.90
2018-11-13T12:51:20.762Z,68.00
2018-11-13T12:53:49.967Z,67.60
2018-11-13T12:56:18.899Z,66.00
2018-11-13T12:58:48.126Z,64.90
2018-11-13T13:01:17.318Z,63.90
2018-11-13T13:03:46.273Z,63.30
2018-11-13T13:06:15.805Z,64.20
2018-11-13T13:08:44.935Z,64.90
2018-11-13T13:11:14.105Z,64.80
2018-11-13T13:13:44.166Z,65.30
2018-11-13T13:16:15.355Z,65.50
2018-11-13T13:18:44.328Z,65.10
2018-11-13T13:21:13.439Z,65.30
2018-11-13T13:23:42.558Z,64.40
2018-11-13T13:26:12.624Z,64.00
2018-11-13T13:28:41.729Z,64.40
2018-11-13T13:31:11.012Z,64.20
2018-11-13T13:33:40.181Z,64.20
2018-11-13T13:36:09.339Z,63.90
2018-11-13T13:38:39.127Z,63.70
2018-11-13T13:41:08.060Z,64.80
2018-11-13T13:43:37.152Z,66.60
2018-11-13T13:46:06.758Z,66.20
2018-11-13T13:48:35.835Z,65.50
2018-11-13T13:51:05.249Z,64.90
2018-11-13T13:53:34.900Z,64.90
2018-11-13T13:56:04.167Z,64.90
2018-11-13T13:58:33.195Z,64.90
2018-11-13T14:01:02.226Z,64.60
2018-11-13T14:03:31.979Z,64.40
2018-11-13T14:06:01.128Z,64.90
2018-11-13T14:08:30.613Z,64.90
2018-11-13T14:10:59.963Z,65.70
2018-11-13T14:13:29.774Z,65.50
2018-11-13T14:15:59.188Z,64.90
2018-11-13T14:18:28.795Z,64.90
2018-11-13T14:20:57.973Z,64.90
2018-11-13T14:23:27.311Z,64.80
2018-11-13T14:25:56.438Z,65.10
2018-11-13T14:28:25.549Z,64.20
2018-11-13T14:30:54.979Z,63.30
2018-11-13T14:33:24.410Z,62.20
2018-11-13T14:35:53.803Z,61.20
2018-11-13T14:38:22.907Z,61.00
2018-11-13T14:40:52.007Z,61.70
2018-11-13T14:43:21.921Z,61.50
2018-11-13T14:45:51.105Z,61.70
2018-11-13T14:48:20.651Z,61.00
2018-11-13T14:50:49.788Z,61.00
2018-11-13T14:53:19.670Z,62.10
2018-11-13T14:55:48.593Z,62.80
2018-11-13T14:58:17.806Z,63.10
2018-11-13T15:00:46.945Z,62.20
2018-11-13T15:03:17.018Z,63.30
2018-11-13T15:05:46.312Z,62.80
2018-11-13T15:08:15.678Z,64.60
2018-11-13T15:10:50.162Z,66.00
2018-11-13T15:13:20.145Z,65.50
2018-11-13T15:15:49.098Z,66.00
2018-11-13T15:18:19.153Z,67.10
2018-11-13T15:20:49.181Z,66.60
2018-11-13T15:23:18.119Z,68.20
2018-11-13T15:25:47.274Z,69.80
2018-11-13T15:28:16.484Z,69.60
2018-11-13T15:30:47.016Z,68.90
2018-11-13T15:33:19.706Z,68.20
2018-11-13T15:35:49.627Z,67.30
2018-11-13T15:38:18.755Z,67.10
2018-11-13T15:40:47.887Z,69.10
2018-11-13T15:43:16.764Z,69.20
2018-11-13T15:45:46.170Z,69.40
2018-11-13T15:48:16.009Z,68.20
2018-11-13T15:50:45.035Z,66.90
2018-11-13T15:53:14.029Z,67.10
2018-11-13T15:55:43.157Z,65.80
2018-11-13T15:58:12.184Z,68.00
2018-11-13T16:00:42.191Z,66.90
2018-11-13T16:03:17.260Z,66.70
2018-11-13T16:05:49.742Z,67.60
2018-11-13T16:08:18.671Z,67.60
2018-11-13T16:10:47.694Z,65.50
2018-11-13T16:13:16.647Z,66.00
2018-11-13T16:15:46.148Z,65.70
2018-11-13T16:18:19.912Z,66.00
2018-11-13T16:20:49.074Z,66.20
2018-11-13T16:23:18.276Z,68.30
2018-11-13T16:25:47.560Z,66.60
2018-11-13T16:28:16.531Z,68.90
2018-11-13T16:30:45.566Z,67.60
2018-11-13T16:33:15.472Z,65.50
2018-11-13T16:35:44.995Z,65.80
2018-11-13T16:38:19.563Z,64.90
2018-11-13T16:40:48.307Z,64.60
2018-11-13T16:43:17.247Z,64.90
2018-11-13T16:45:46.408Z,62.40
2018-11-13T16:48:15.903Z,63.50
2018-11-13T16:50:44.991Z,65.70
2018-11-13T16:53:13.921Z,65.10
2018-11-13T16:55:48.456Z,64.60
2018-11-13T16:58:17.923Z,64.60
2018-11-13T17:00:46.931Z,63.50
2018-11-13T17:03:16.300Z,64.90
2018-11-13T17:05:45.273Z,63.70
2018-11-13T17:08:14.749Z,63.30
2018-11-13T17:10:44.791Z,64.00
2018-11-13T17:13:14.176Z,64.80
2018-11-13T17:15:43.350Z,62.80
2018-11-13T17:18:13.727Z,62.60
2018-11-13T17:20:41.506Z,61.50
2018-11-13T17:23:10.802Z,62.40
2018-11-13T17:25:41.941Z,61.20
2018-11-13T17:28:12.112Z,59.20
2018-11-13T17:30:41.296Z,64.20
2018-11-13T17:33:10.643Z,63.00
2018-11-13T17:35:39.568Z,62.10
2018-11-13T17:38:09.797Z,61.70
2018-11-13T17:40:42.053Z,61.00
2018-11-13T17:43:11.697Z,60.00
2018-11-13T17:45:41.859Z,59.40
2018-11-13T17:48:12.405Z,59.50
2018-11-13T17:50:42.549Z,57.90
2018-11-13T17:53:12.109Z,58.50
2018-11-13T17:55:41.374Z,58.60
2018-11-13T17:58:12.058Z,58.20
2018-11-13T18:00:55.454Z,58.20
2018-11-13T18:03:26.232Z,57.30
2018-11-13T18:05:59.580Z,57.20
2018-11-13T18:08:44.638Z,57.90
2018-11-13T18:11:15.871Z,58.30
2018-11-13T18:13:45.187Z,58.50
2018-11-13T18:16:43.942Z,57.70
2018-11-13T18:19:15.872Z,57.60
2018-11-13T18:21:45.205Z,57.60
2018-11-13T18:24:21.336Z,57.70
2018-11-13T18:27:32.770Z,57.60
2018-11-13T18:30:02.785Z,55.80
2018-11-13T18:32:43.129Z,57.60
2018-11-13T18:35:24.409Z,58.20
2018-11-13T18:37:56.486Z,56.10
2018-11-13T18:40:38.355Z,59.20
2018-11-13T18:43:08.183Z,59.10
2018-11-13T18:45:39.303Z,58.20
2018-11-13T18:48:08.262Z,59.70
2018-11-13T18:50:39.801Z,59.80
2018-11-13T18:53:08.704Z,59.80
2018-11-13T18:55:37.721Z,59.40
2018-11-13T18:58:06.973Z,59.20
2018-11-13T19:00:37.459Z,59.50
2018-11-13T19:03:07.567Z,62.80
2018-11-13T19:05:36.563Z,61.20
2018-11-13T19:08:06.184Z,60.80
2018-11-13T19:10:38.073Z,59.40
2018-11-13T19:13:09.139Z,62.20
2018-11-13T19:15:40.019Z,62.80
2018-11-13T19:18:09.650Z,64.60
2018-11-13T19:20:39.138Z,62.10
2018-11-13T19:23:08.124Z,63.30
2018-11-13T19:25:37.630Z,64.00
2018-11-13T19:28:06.870Z,63.10
2018-11-13T19:30:36.017Z,61.70
2018-11-13T19:33:05.186Z,62.80
2018-11-13T19:35:34.957Z,61.20
2018-11-13T19:38:03.762Z,63.00
2018-11-13T19:40:33.846Z,61.70
2018-11-13T19:43:14.389Z,62.10
2018-11-13T19:45:45.212Z,61.90
2018-11-13T19:48:14.159Z,61.90
2018-11-13T19:50:43.628Z,61.00
2018-11-13T19:53:12.554Z,61.30
2018-11-13T19:55:41.551Z,60.60
2018-11-13T19:58:10.576Z,61.20
2018-11-13T20:00:40.078Z,60.00
2018-11-13T20:03:10.532Z,61.50
2018-11-13T20:05:39.472Z,61.00
2018-11-13T20:08:09.794Z,63.10
2018-11-13T20:10:40.186Z,61.20
2018-11-13T20:13:10.113Z,63.50
2018-11-13T20:15:39.901Z,63.10
2018-11-13T20:18:08.851Z,62.80
2018-11-13T20:20:38.319Z,62.60
2018-11-13T20:23:08.100Z,61.50
2018-11-13T20:25:37.536Z,61.50
2018-11-13T20:28:06.862Z,60.30
2018-11-13T20:30:37.697Z,62.80
2018-11-13T20:33:07.143Z,63.50
2018-11-13T20:35:36.107Z,62.80
2018-11-13T20:38:05.543Z,62.40
2018-11-13T20:40:35.555Z,61.50
2018-11-13T20:43:06.274Z,61.20
2018-11-13T20:45:35.409Z,61.90
2018-11-13T20:48:04.692Z,60.60
2018-11-13T20:50:34.285Z,62.40
2018-11-13T20:53:04.005Z,62.40
2018-11-13T20:55:33.146Z,61.70
2018-11-13T20:58:02.117Z,60.60
2018-11-13T21:00:32.889Z,61.00
2018-11-13T21:03:02.268Z,63.30
2018-11-13T21:05:31.219Z,63.30
2018-11-13T21:08:01.551Z,62.80
2018-11-13T21:10:34.580Z,64.00
2018-11-13T21:13:05.791Z,64.20
2018-11-13T21:15:35.907Z,62.60
2018-11-13T21:18:05.862Z,63.00
2018-11-13T21:20:41.813Z,68.90
2018-11-13T21:23:11.838Z,71.90
2018-11-13T21:25:40.969Z,75.70
2018-11-13T21:28:12.411Z,78.40
2018-11-13T21:30:42.701Z,81.60
2018-11-13T21:33:13.488Z,80.90
2018-11-13T21:35:44.582Z,80.20
2018-11-13T21:38:14.625Z,80.40
2018-11-13T21:40:45.188Z,80.90
2018-11-13T21:43:14.312Z,81.60
2018-11-13T21:45:44.119Z,84.20
2018-11-13T21:48:14.300Z,88.30
2018-11-13T21:50:44.387Z,84.70
2018-11-13T21:53:14.422Z,79.80
2018-11-13T21:55:44.405Z,75.50
2018-11-13T21:58:13.869Z,73.20
2018-11-13T22:00:43.280Z,70.50
2018-11-13T22:03:13.380Z,66.90
2018-11-13T22:05:42.402Z,66.90
2018-11-13T22:08:11.763Z,67.10
2018-11-13T22:10:41.231Z,66.60
2018-11-13T22:13:10.391Z,64.60
2018-11-13T22:15:39.833Z,66.00
2018-11-13T22:18:10.027Z,65.30
2018-11-13T22:20:45.976Z,64.80
2018-11-13T22:23:15.845Z,62.20
2018-11-13T22:25:45.604Z,64.80
2018-11-13T22:28:14.920Z,63.90
2018-11-13T22:30:44.127Z,63.50
2018-11-13T22:33:13.325Z,63.00
2018-11-13T22:35:42.643Z,62.80
2018-11-13T22:38:12.525Z,62.20
2018-11-13T22:40:41.726Z,62.60
2018-11-13T22:43:12.414Z,62.10
2018-11-13T22:45:41.824Z,63.00
2018-11-13T22:48:10.948Z,62.60
2018-11-13T22:50:40.902Z,62.10
2018-11-13T22:53:10.519Z,61.50
2018-11-13T22:55:40.357Z,60.00
2018-11-13T22:58:09.375Z,62.10
2018-11-13T23:00:41.857Z,62.60
2018-11-13T23:03:14.959Z,60.80
2018-11-13T23:05:45.337Z,62.20
2018-11-13T23:08:17.342Z,63.00
2018-11-13T23:10:47.350Z,62.60
2018-11-13T23:13:17.138Z,61.30
2018-11-13T23:15:47.550Z,61.30
2018-11-13T23:18:17.304Z,60.30
2018-11-13T23:20:47.030Z,61.30
2018-11-13T23:23:17.104Z,61.20
2018-11-13T23:25:46.105Z,60.60
2018-11-13T23:28:16.535Z,60.40
2018-11-13T23:30:45.717Z,60.10
2018-11-13T23:33:15.006Z,59.40
2018-11-13T23:35:45.087Z,59.70
2018-11-13T23:38:14.905Z,59.50
2018-11-13T23:40:45.096Z,60.30
2018-11-13T23:43:14.906Z,60.40
2018-11-13T23:45:45.288Z,60.80
2018-11-13T23:48:14.508Z,60.40
2018-11-13T23:50:44.241Z,59.50
2018-11-13T23:53:14.058Z,59.40
2018-11-13T23:55:43.920Z,59.70
2018-11-13T23:58:13.608Z,58.60
